TAF Text Data
IDs:
Format:
Raw Decoded Include METAR

Data at: 0956 UTC 13 Aug 2022

METAR for:KSOA (Sonora Muni, TX, US)
Text:KSOA 130935Z AUTO 00000KT 10SM CLR 25/18 A3012 RMK AO2
Temperature: 25.0°C ( 77°F)
Dewpoint: 18.0°C ( 64°F) [RH = 65%]
Pressure (altimeter):30.12 inches Hg (1020.1 mb)
Winds:calm
Visibility:10 or more sm (16+ km)
Ceiling:at least 12,000 feet AGL
Clouds:sky clear below 12,000 feet AGL
QC Flag:automated observation with no human augmentation

TAF for:KSOA (Sonora Muni, TX, US) issued at 0520 UTC 13 Aug 2022
Text:KSOA 130520Z 1306/1406 VRB06KT P6SM SCT250
Forecast period:0600 UTC 13 August 2022 to 0600 UTC 14 August 2022
Forecast type:FROM: standard forecast or significant change
Winds:variable direction winds at 7 MPH (6 knots; 3.1 m/s)
Visibility:6 or more sm (10+ km)
Ceiling:at least 12,000 feet AGL
Clouds: scattered clouds at 25000 feet AGL